キングストン の空港の天気 - METARとTAF

ノーマン・マンレー国際空港 ( MKJP / KIN ) - ジャマイカ キングストン
飛行場実況気象(Metar)
観測時間12/01 19:00 EST (12/02 00:00 UTC)
風向・風速北東 4m/s
視程10km以上
天気現象
少しの雲 雲底高度 730m
気温28℃
湿度66%
気圧1013hPa
METARMKJP 020000Z 05008KT 9999 FEW024 28/21 Q1013
過去の天気等 Google飛行場航空写真 Wunderground天気予報

過去48時間のMETAR

飛行場予報(TAF)
発表時間: 12/01 18:15 EST (12/01 23:15 UTC)
予報対象時間: 1日19時 EST ~ 2日19時 EST
風向・風速北 3m/s
視程10km以上
少しの雲 雲底高度 730m
2日10時 EST ~ 2日12時 EST に徐々に
風向・風速南 5m/s
少しの雲 雲底高度 610m
全天の4割程度の雲 雲底高度 1100m
TAF MKJP 012315Z 0200/0224 35005KT 9999 FEW024
BECMG 0215/0217 18010KT FEW020 SCT036